Latest Weather Observations for Forrest

IDW60801

Issued at 10:33 pm WST Thursday 18 April 2019 (issued every 10 minutes, with the page automatically refreshed every 10 minutes)

About weather observations | Map of weather stations | Latest weather observations for WA | Other Formats
Station Details ID: 011052 Name: FORREST Lat: -30.85 Lon: 128.11 Height: 159.0 m
Data from the previous 72 hours. | See also: Recent months at Forrest
Date/Time
WST
Temp
°C
App
Temp
°C
Dew
Point
°C
Rel
Hum
%
Delta-T
°C
Wind Press
QNH
hPa
Press
MSL
hPa
Rain since
9am
mm
Dir  Spd
km/h
Gust
km/h
Spd
kts
Gust
kts
18/10:30pm 21.0 17.9 11.6 55 5.3 E 19 24 10 13 1015.3 1014.9 0.0
18/10:00pm 21.0 18.0 11.9 56 5.1 ESE 19 22 10 12 1015.8 1015.4 0.0
18/09:30pm 21.2 18.9 11.8 55 5.3 SE 15 17 8 9 1016.6 1016.2 0.0
18/09:00pm 21.6 19.5 11.0 51 5.9 SE 13 17 7 9 1016.8 1016.4 0.0
18/08:30pm 22.7 20.7 10.2 45 6.9 ESE 11 15 6 8 1016.5 1016.1 0.0
18/08:00pm 23.6 21.3 10.3 43 7.4 E 13 17 7 9 1016.2 1015.8 0.0
18/07:30pm 24.0 21.2 9.9 41 7.8 E 15 19 8 10 1016.2 1015.8 0.0
18/07:00pm 24.5 20.8 10.0 40 8.0 E 20 26 11 14 1016.0 1015.6 0.0
18/06:30pm 24.7 21.5 9.8 39 8.2 E 17 19 9 10 1016.1 1015.7 0.0
18/06:00pm 25.4 22.2 10.1 38 8.5 ENE 17 20 9 11 1016.1 1015.7 0.0
18/05:30pm 26.3 22.6 10.0 36 9.1 ENE 20 28 11 15 1016.0 1015.6 0.0
18/05:00pm 27.1 21.8 9.9 34 9.6 ENE 28 33 15 18 1015.6 1015.2 0.0
18/04:30pm 28.0 21.7 9.8 32 10.2 ENE 33 39 18 21 1015.4 1015.0 0.0
18/04:00pm 28.8 23.3 10.5 32 10.4 ENE 30 37 16 20 1015.5 1015.1 0.0
18/03:30pm 29.5 24.6 10.1 30 11.0 ENE 26 32 14 17 1016.0 1015.6 0.0
18/03:00pm 29.8 25.8 10.4 30 11.1 ENE 22 32 12 17 1016.2 1015.8 0.0
18/02:30pm 29.4 25.0 10.5 31 10.8 E 24 33 13 18 1016.3 1015.9 0.0
18/02:00pm 28.6 24.2 10.3 32 10.4 ENE 24 35 13 19 1016.6 1016.2 0.0
18/01:30pm 28.4 24.1 10.6 33 10.2 ENE 24 33 13 18 1017.0 1016.6 0.0
18/01:00pm 28.3 23.4 10.0 32 10.3 ENE 26 33 14 18 1017.5 1017.1 0.0
18/12:30pm 26.4 21.5 10.1 36 9.1 E 26 50 14 27 1018.3 1017.8 0.0
18/12:00pm 26.1 21.8 10.7 38 8.7 ENE 24 33 13 18 1019.4 1018.9 0.0
18/11:30am 25.0 20.1 11.2 42 7.8 ENE 28 41 15 22 1020.3 1019.9 0.0
18/11:00am 23.9 19.4 11.3 45 7.1 ENE 26 33 14 18 1021.2 1020.8 0.0
18/10:30am 22.4 17.1 11.2 49 6.3 ENE 30 37 16 20 1021.8 1021.4 0.0
18/10:00am 21.7 16.0 11.1 51 5.9 ENE 32 44 17 24 1022.3 1021.9 0.0
18/09:30am 20.5 14.8 11.2 55 5.2 ENE 32 41 17 22 1022.8 1022.4 0.0
18/09:00am 19.8 14.1 11.8 60 4.4 ENE 33 41 18 22 1023.0 1022.6 0.0
18/08:30am 19.1 13.4 11.9 63 4.0 ENE 33 41 18 22 1023.5 1023.1 0.0
18/08:00am 17.8 11.6 11.4 66 3.5 E 35 43 19 23 1023.6 1023.2 0.0
18/07:30am 16.4 11.8 11.1 71 2.9 ENE 26 32 14 17 1023.7 1023.3 0.0
18/07:00am 14.3 10.6 10.1 76 2.2 E 20 26 11 14 1024.0 1023.6 0.0
18/06:30am 12.1 9.1 9.3 83 1.4 E 15 17 8 9 1023.7 1023.3 0.0
18/06:00am 10.5 7.3 8.3 86 1.1 E 15 15 8 8 1023.5 1023.1 0.0
18/05:30am 10.5 7.7 8.4 87 1.0 E 13 15 7 8 1023.6 1023.2 0.0
18/05:00am 10.2 7.3 8.0 86 1.1 E 13 15 7 8 1023.5 1023.1 0.0
18/04:30am 10.5 7.3 8.3 86 1.1 ESE 15 15 8 8 1023.4 1023.0 0.0
18/04:00am 11.1 8.4 8.8 86 1.1 ESE 13 13 7 7 1023.4 1023.0 0.0
18/03:30am 11.3 9.0 9.0 86 1.2 ESE 11 13 6 7 1023.3 1022.9 0.0
18/03:00am 11.7 9.5 9.3 85 1.2 ESE 11 13 6 7 1023.2 1022.8 0.0
18/02:30am 12.1 9.5 9.5 84 1.3 ESE 13 13 7 7 1023.1 1022.7 0.0
18/02:00am 12.5 10.0 9.7 83 1.4 ESE 13 15 7 8 1022.9 1022.5 0.0
18/01:30am 12.8 10.0 10.0 83 1.4 ESE 15 17 8 9 1023.1 1022.7 0.0
18/01:00am 13.2 10.8 10.2 82 1.6 ESE 13 17 7 9 1023.4 1023.0 0.0
18/12:30am 13.3 10.9 10.1 81 1.7 ESE 13 15 7 8 1023.5 1023.1 0.0
18/12:00am 13.7 11.4 10.5 81 1.7 ESE 13 15 7 8 1023.5 1023.1 0.0
 
Date/Time
WST
Temp
°C
App
Temp
°C
Dew
Point
°C
Rel
Hum
%
Delta-T
°C
Wind Press
QNH
hPa
Press
MSL
hPa
Rain since
9am
mm
Dir  Spd
km/h
Gust
km/h
Spd
kts
Gust
kts
17/11:30pm 14.1 11.8 10.5 79 1.9 ESE 13 17 7 9 1023.6 1023.2 0.0
17/11:00pm 14.7 12.2 10.9 78 2.0 ESE 15 19 8 10 1023.8 1023.4 0.0
17/10:30pm 15.0 12.5 11.0 77 2.1 ESE 15 20 8 11 1024.1 1023.7 0.0
17/10:00pm 15.3 12.4 10.9 75 2.3 ESE 17 20 9 11 1024.3 1023.9 0.0
17/09:30pm 15.7 12.8 11.1 74 2.5 ESE 17 22 9 12 1024.7 1024.2 0.0
17/09:00pm 16.1 12.9 11.3 73 2.6 ESE 19 26 10 14 1024.6 1024.1 0.0
17/08:30pm 16.5 13.1 11.4 72 2.8 SE 20 28 11 15 1024.4 1024.0 0.0
17/08:00pm 16.8 13.0 11.3 70 3.0 SE 22 30 12 16 1024.2 1023.8 0.0
17/07:30pm 17.2 12.6 11.2 68 3.3 SE 26 32 14 17 1024.0 1023.6 0.0
17/07:00pm 17.6 13.3 10.7 64 3.7 SE 24 32 13 17 1023.7 1023.3 0.0
17/06:30pm 18.1 12.9 10.2 60 4.2 SE 28 35 15 19 1023.2 1022.8 0.0
17/06:00pm 18.8 12.8 10.1 57 4.7 SE 32 37 17 20 1022.7 1022.3 0.0
17/05:30pm 19.5 14.0 10.5 56 4.9 SE 30 37 16 20 1022.2 1021.8 0.0
17/05:00pm 20.5 14.4 10.6 53 5.4 SE 33 41 18 22 1021.6 1021.2 0.0
17/04:30pm 22.4 17.4 10.9 48 6.4 SE 28 37 15 20 1021.3 1020.9 0.0
17/04:00pm 23.0 18.7 10.8 46 6.8 SE 24 32 13 17 1021.0 1020.6 0.0
17/03:30pm 23.6 19.1 11.3 46 6.9 SE 26 37 14 20 1020.7 1020.3 0.0
17/03:00pm 24.0 20.0 11.7 46 7.0 SSE 24 39 13 21 1020.5 1020.1 0.0
17/02:30pm 24.6 20.4 11.2 43 7.6 SSE 24 30 13 16 1020.4 1020.0 0.0
17/02:00pm 24.2 21.4 11.2 44 7.3 SE 17 30 9 16 1020.3 1019.9 0.0
17/01:30pm 25.0 20.9 11.6 43 7.6 SE 24 37 13 20 1020.2 1019.8 0.0
17/01:00pm 24.8 21.7 10.3 40 8.1 SSE 17 32 9 17 1020.4 1020.0 0.0
17/12:30pm 25.2 22.0 11.4 42 7.9 S 19 28 10 15 1020.6 1020.2 0.0
17/12:00pm 24.7 21.6 12.3 46 7.1 S 20 30 11 16 1020.8 1020.4 0.0
17/11:30am 23.9 21.0 12.2 48 6.7 S 19 30 10 16 1021.0 1020.6 0.0
17/11:00am 24.0 21.1 12.9 50 6.4 S 20 33 11 18 1021.3 1020.9 0.0
17/10:30am 23.4 19.6 12.4 50 6.3 S 24 33 13 18 1021.2 1020.8 0.0
17/10:00am 22.8 19.2 13.0 54 5.7 S 24 35 13 19 1021.1 1020.7 0.0
17/09:30am 21.9 17.6 13.3 58 5.0 S 28 33 15 18 1021.1 1020.7 0.0
17/09:00am 21.1 17.1 14.0 64 4.1 S 28 37 15 20 1021.2 1020.8 0.0
17/08:30am 20.6 16.7 14.3 67 3.7 SSE 28 37 15 20 1021.1 1020.7 0.0
17/08:00am 19.6 15.2 14.2 71 3.1 S 30 44 16 24 1021.1 1020.7 0.0
17/07:30am 18.8 14.9 14.5 76 2.5 S 28 35 15 19 1020.8 1020.4 0.0
17/07:00am 17.7 15.4 14.6 82 1.8 S 20 32 11 17 1020.5 1020.1 0.0
17/06:30am 16.3 14.9 14.5 89 1.0 S 15 22 8 12 1020.1 1019.7 0.0
17/06:00am 15.9 14.7 14.1 89 1.0 S 13 17 7 9 1019.6 1019.2 0.0
17/05:30am 16.4 15.3 14.2 87 1.3 S 13 15 7 8 1019.3 1018.8 0.0
17/05:00am 16.8 14.9 14.3 85 1.4 S 17 22 9 12 1018.4 1017.9 0.0
17/04:30am 17.2 14.3 14.1 82 1.8 S 22 30 12 16 1017.7 1017.3 0.0
17/04:00am 17.4 14.0 13.7 79 2.1 SSW 24 32 13 17 1017.1 1016.7 0.0
17/03:30am 17.3 14.4 12.8 75 2.5 SSW 20 26 11 14 1016.3 1015.9 0.0
17/03:00am 17.0 14.1 11.1 68 3.2 SSW 17 22 9 12 1015.5 1015.1 0.0
17/02:30am 17.4 14.4 10.5 64 3.7 SSW 17 19 9 10 1015.0 1014.6 0.0
17/02:00am 18.1 14.6 10.2 60 4.2 SSW 19 24 10 13 1014.7 1014.3 0.0
17/01:30am 18.3 14.6 9.6 57 4.6 SW 19 24 10 13 1014.4 1014.0 0.0
17/01:00am 18.5 15.6 9.8 57 4.6 SW 15 17 8 9 1014.5 1014.1 0.0
17/12:30am 19.2 16.9 10.5 57 4.7 SW 13 15 7 8 1014.5 1014.1 0.0
17/12:00am 20.2 17.9 10.3 53 5.4 SW 13 15 7 8 1014.3 1013.9 0.0
 
Date/Time
WST
Temp
°C
App
Temp
°C
Dew
Point
°C
Rel
Hum
%
Delta-T
°C
Wind Press
QNH
hPa
Press
MSL
hPa
Rain since
9am
mm
Dir  Spd
km/h
Gust
km/h
Spd
kts
Gust
kts
16/11:30pm 21.1 18.2 10.9 52 5.6 SW 17 19 9 10 1013.7 1013.2 0.0
16/11:00pm 22.0 19.2 11.4 51 5.9 SW 17 20 9 11 1013.5 1013.0 0.0
16/10:30pm 22.7 19.7 12.0 50 6.1 SW 19 22 10 12 1013.2 1012.7 0.0
16/10:00pm 22.3 19.9 12.8 55 5.5 SW 17 19 9 10 1013.0 1012.5 0.0
16/09:30pm 23.8 21.5 13.1 51 6.2 WSW 17 19 9 10 1013.0 1012.5 0.0
16/09:00pm 25.1 22.2 13.0 47 7.1 SW 20 24 11 13 1013.1 1012.6 0.0
16/08:30pm 24.9 22.6 13.1 48 6.9 WSW 17 20 9 11 1012.8 1012.3 0.0
16/08:00pm 25.4 23.1 12.9 45 7.3 WSW 17 20 9 11 1012.5 1012.0 0.0
16/07:30pm 25.8 23.9 13.0 45 7.5 WSW 15 17 8 9 1012.2 1011.7 0.0
16/07:00pm 27.0 25.1 13.0 42 8.3 WSW 15 17 8 9 1011.8 1011.3 0.0
16/06:30pm 28.5 26.1 12.8 38 9.3 WSW 17 20 9 11 1011.5 1011.0 0.0
16/06:00pm 28.5 26.5 12.8 38 9.3 WSW 15 19 8 10 1010.9 1010.5 0.0
16/05:30pm 29.6 27.5 12.5 35 10.1 W 15 19 8 10 1010.3 1009.9 0.0
16/05:00pm 31.0 28.5 12.4 32 11.1 W 17 24 9 13 1009.9 1009.5 0.0
16/04:30pm 32.4 29.0 12.6 30 11.9 WNW 22 30 12 16 1009.5 1009.1 0.0
16/04:00pm 33.2 28.9 12.2 28 12.6 WNW 26 35 14 19 1009.4 1009.0 0.0
16/03:30pm 33.2 29.7 12.2 28 12.5 NW 22 32 12 17 1009.5 1009.1 0.0
16/03:00pm 33.2 29.7 12.2 28 12.6 WNW 22 30 12 16 1009.5 1009.1 0.0
16/02:30pm 33.4 29.2 12.4 28 12.6 WNW 26 41 14 22 1009.7 1009.3 0.0
16/02:00pm 33.2 28.2 12.2 28 12.6 W 30 39 16 21 1009.7 1009.3 0.0
16/01:30pm 33.4 30.2 11.9 27 12.8 NW 20 33 11 18 1009.9 1009.5 0.0
16/01:00pm 32.4 28.3 11.6 28 12.3 WNW 24 39 13 21 1010.1 1009.7 0.0
16/12:30pm 32.5 28.1 11.6 28 12.3 WNW 26 35 14 19 1010.6 1010.2 0.0
16/12:00pm 32.1 28.9 11.8 29 12.0 WNW 20 32 11 17 1011.1 1010.7 0.0
16/11:30am 31.2 28.1 12.1 31 11.3 WNW 20 32 11 17 1011.9 1011.4 0.0
16/11:00am 30.9 28.7 13.2 34 10.6 NW 17 26 9 14 1012.6 1012.1 0.0
16/10:30am 29.8 27.4 12.7 35 10.1 WNW 17 26 9 14 1012.9 1012.4 0.0
16/10:00am 29.1 27.4 12.5 36 9.8 NW 13 19 7 10 1013.3 1012.8 0.0
16/09:30am 27.5 27.2 15.5 48 7.4 N 11 15 6 8 1013.6 1013.1 0.0
16/09:00am 26.2 26.1 15.9 53 6.3 NE 11 15 6 8 1013.9 1013.4 0.0
16/08:30am 24.9 24.7 16.6 60 5.1 NE 13 17 7 9 1014.0 1013.5 0.0
16/08:00am 22.9 22.4 16.9 69 3.7 NE 15 19 8 10 1014.2 1013.8 0.0
16/07:30am 21.0 21.7 17.0 78 2.5 NNE 9 11 5 6 1014.4 1014.0 0.0
16/07:00am 19.4 21.6 16.6 84 1.7 CALM 0 0 0 0 1014.2 1013.8 0.0
16/06:30am 16.2 17.9 15.1 93 0.6 CALM 0 0 0 0 1013.9 1013.4 0.0
16/06:00am 15.4 16.7 14.1 92 0.7 CALM 0 0 0 0 1013.9 1013.4 0.0
16/05:30am 15.9 16.2 14.6 92 0.7 NE 6 7 3 4 1013.7 1013.2 0.0
16/05:00am 16.2 16.5 14.9 92 0.8 NE 7 11 4 6 1013.6 1013.1 0.0
16/04:30am 16.1 16.3 14.8 92 0.8 NE 7 9 4 5 1013.4 1012.9 0.0
16/04:00am 16.3 16.1 14.8 91 0.9 NE 9 11 5 6 1013.2 1012.7 0.0
16/03:30am 16.7 16.3 15.1 90 0.9 NE 11 15 6 8 1013.1 1012.6 0.0
16/03:00am 16.8 16.0 15.2 90 0.9 NE 13 17 7 9 1013.1 1012.6 0.0
16/02:30am 17.0 16.3 15.3 90 1.0 NE 13 13 7 7 1013.0 1012.5 0.0
16/02:00am 16.9 16.0 14.9 88 1.2 NE 13 15 7 8 1013.1 1012.6 0.0
16/01:30am 17.1 16.1 14.7 86 1.4 NE 13 15 7 8 1013.3 1012.8 0.0
16/01:00am 17.3 16.4 14.8 85 1.5 ENE 13 15 7 8 1013.6 1013.1 0.0
16/12:30am 17.4 16.3 15.2 87 1.3 ENE 15 17 8 9 1013.7 1013.2 0.0
16/12:00am 17.3 16.6 15.3 88 1.2 ENE 13 17 7 9 1013.8 1013.3 0.0
 
Date/Time
WST
Temp
°C
App
Temp
°C
Dew
Point
°C
Rel
Hum
%
Delta-T
°C
Wind Press
QNH
hPa
Press
MSL
hPa
Rain since
9am
mm
Dir  Spd
km/h
Gust
km/h
Spd
kts
Gust
kts
15/11:30pm 17.7 17.0 15.5 87 1.3 ENE 13 19 7 10 1014.0 1013.5 0.0
15/11:00pm 17.5 16.3 15.1 86 1.4 ENE 15 17 8 9 1014.1 1013.6 0.0

Other formats

Comma delimited format used in spreadsheet applications
http://www.bom.gov.au/fwo/IDW60801/IDW60801.95646.axf

JavaScript Object Notation format (JSON) in row-major order
http://www.bom.gov.au/fwo/IDW60801/IDW60801.95646.json

Data quality

Most of these data are generated automatically and are frequently updated. Quality checks on data are not normally performed. It is possible for incorrect values to appear. Refer to information at About Latest Weather Observations and please check the disclaimer before using these data.